createdAt,value
2019-03-23T00:06:55.917Z,58.0
2019-03-23T00:23:43.786Z,58.0
2019-03-23T00:40:31.719Z,58.0
2019-03-23T00:57:19.531Z,58.0
2019-03-23T01:14:07.319Z,58.4
2019-03-23T01:30:55.117Z,58.4
2019-03-23T01:47:42.859Z,58.4
2019-03-23T02:04:30.512Z,58.4
2019-03-23T02:21:18.039Z,58.0
2019-03-23T02:38:05.583Z,58.0
2019-03-23T02:54:52.950Z,57.6
2019-03-23T03:11:40.251Z,57.6
2019-03-23T03:28:27.395Z,57.6
2019-03-23T03:45:14.576Z,57.6
2019-03-23T04:02:01.737Z,57.6
2019-03-23T04:18:48.787Z,57.6
2019-03-23T04:35:35.909Z,57.6
2019-03-23T04:52:22.695Z,57.6
2019-03-23T05:09:09.464Z,57.2
2019-03-23T05:25:56.390Z,57.2
2019-03-23T05:42:43.114Z,57.2
2019-03-23T05:59:29.993Z,57.2
2019-03-23T06:16:17.908Z,57.2
2019-03-23T06:33:03.606Z,57.2
2019-03-23T06:49:51.117Z,57.2
2019-03-23T07:06:37.453Z,56.8
2019-03-23T07:23:24.435Z,56.8
2019-03-23T07:40:11.412Z,56.4
2019-03-23T07:56:58.447Z,55.2
2019-03-23T08:13:45.574Z,55.2
2019-03-23T08:30:32.663Z,55.2
2019-03-23T08:47:19.780Z,54.8
2019-03-23T09:04:07.010Z,54.8
2019-03-23T09:20:54.591Z,54.8
2019-03-23T09:37:42.482Z,55.2
2019-03-23T09:54:30.448Z,55.2
2019-03-23T10:11:18.271Z,55.2
2019-03-23T10:28:06.294Z,55.2
2019-03-23T10:44:54.586Z,54.8
2019-03-23T11:01:42.837Z,54.8
2019-03-23T11:18:31.250Z,54.4
2019-03-23T11:35:19.771Z,54.0
2019-03-23T11:52:08.070Z,53.2
2019-03-23T12:08:56.636Z,52.8
2019-03-23T12:25:45.749Z,52.4
2019-03-23T12:42:39.110Z,52.0
2019-03-23T12:59:22.660Z,52.4
2019-03-23T13:16:10.582Z,52.4
2019-03-23T13:32:59.037Z,52.4
2019-03-23T13:49:48.211Z,52.8
2019-03-23T14:06:37.490Z,52.8
2019-03-23T14:23:25.249Z,52.8
2019-03-23T14:40:13.778Z,52.8
2019-03-23T14:57:03.299Z,53.2
2019-03-23T15:13:53.862Z,53.2
2019-03-23T15:30:40.601Z,53.2
2019-03-23T15:47:28.595Z,54.0
2019-03-23T16:04:17.947Z,54.0
2019-03-23T16:21:06.284Z,54.8
2019-03-23T16:37:58.121Z,55.2
2019-03-23T16:54:45.259Z,55.6
2019-03-23T17:11:33.789Z,55.6
2019-03-23T17:28:23.716Z,55.6
2019-03-23T17:45:12.552Z,56.4
2019-03-23T18:01:59.389Z,56.0
2019-03-23T18:18:48.027Z,56.0
2019-03-23T18:35:36.130Z,56.0
2019-03-23T18:52:23.414Z,56.8
2019-03-23T19:09:11.455Z,56.8
2019-03-23T19:26:00.029Z,56.8
2019-03-23T19:42:48.653Z,56.8
2019-03-23T19:59:38.889Z,56.8
2019-03-23T20:16:24.415Z,57.2
2019-03-23T20:33:19.452Z,57.2
2019-03-23T20:50:01.054Z,57.6
2019-03-23T21:06:48.354Z,57.6
2019-03-23T21:23:37.519Z,57.6
2019-03-23T21:40:24.110Z,57.6
2019-03-23T21:57:14.377Z,57.6
2019-03-23T22:14:00.306Z,57.6
2019-03-23T22:30:48.466Z,57.6
2019-03-23T22:47:36.295Z,57.2
2019-03-23T23:04:24.259Z,57.2
2019-03-23T23:21:12.045Z,56.8
2019-03-23T23:38:00.082Z,56.8
2019-03-23T23:54:47.406Z,56.8
